Time;durP1;ratioP1;P1;durP2;ratioP2;P2;SDS_P1;SDS_P2;PMS_P1;PMS_P2;Temp;Humidity;BMP_temperature;BMP_pressure;BME280_temperature;BME280_humidity;BME280_pressure;Samples;Min_cycle;Max_cycle;Signal;HPM_P1;HPM_P2
2023/12/09 00:00:47;;;;;;;4.03;3.00;;;;;;;;;;6123214;23;20018;-83
2023/12/09 00:03:14;;;;;;;5.25;3.30;;;;;;;;;;6122297;23;20022;-83
2023/12/09 00:05:42;;;;;;;3.72;3.30;;;;;;;;;;6121521;23;20022;-83
2023/12/09 00:08:09;;;;;;;4.68;3.75;;;;;;;;;;6122391;23;20071;-84
2023/12/09 00:10:36;;;;;;;3.13;2.90;;;;;;;;;;6122299;23;20079;-83
2023/12/09 00:13:03;;;;;;;3.75;3.22;;;;;;;;;;6122258;23;20398;-83
2023/12/09 00:15:31;;;;;;;4.32;2.85;;;;;;;;;;6122398;23;20064;-83
2023/12/09 00:17:58;;;;;;;3.08;2.85;;;;;;;;;;6122295;23;20493;-83
2023/12/09 00:20:26;;;;;;;3.15;2.85;;;;;;;;;;6123850;23;20072;-84
2023/12/09 00:22:53;;;;;;;3.25;2.95;;;;;;;;;;6122121;23;20097;-83
2023/12/09 00:25:20;;;;;;;4.88;2.60;;;;;;;;;;6121959;23;20026;-83
2023/12/09 00:27:47;;;;;;;6.32;2.83;;;;;;;;;;6123237;23;20060;-83
2023/12/09 00:30:15;;;;;;;2.78;2.58;;;;;;;;;;6122400;23;20377;-83
2023/12/09 00:32:44;;;;;;;3.60;2.70;;;;;;;;;;6122936;23;20080;-83
2023/12/09 00:35:14;;;;;;;3.45;3.15;;;;;;;;;;6122080;23;20022;-83
2023/12/09 00:37:41;;;;;;;4.00;2.88;;;;;;;;;;6121912;23;20026;-83
2023/12/09 00:40:09;;;;;;;3.05;2.30;;;;;;;;;;6121900;23;20409;-83
2023/12/09 00:42:36;;;;;;;4.07;2.53;;;;;;;;;;6122358;23;20026;-83
2023/12/09 00:45:06;;;;;;;2.97;2.17;;;;;;;;;;6121928;23;20022;-81
2023/12/09 00:47:33;;;;;;;3.97;2.58;;;;;;;;;;6122881;23;20026;-81
2023/12/09 00:50:01;;;;;;;4.50;2.65;;;;;;;;;;6121976;23;20026;-81
2023/12/09 00:52:28;;;;;;;3.28;2.53;;;;;;;;;;6122141;23;20102;-80
2023/12/09 00:54:56;;;;;;;4.15;2.72;;;;;;;;;;6123672;23;20075;-81
2023/12/09 00:57:24;;;;;;;2.90;2.70;;;;;;;;;;6123053;23;20022;-81
2023/12/09 00:59:52;;;;;;;5.90;3.00;;;;;;;;;;6121563;23;20033;-81
2023/12/09 01:02:19;;;;;;;5.75;2.83;;;;;;;;;;6123400;23;20026;-83
2023/12/09 01:04:46;;;;;;;3.97;2.72;;;;;;;;;;6121924;23;20436;-83
2023/12/09 01:07:14;;;;;;;3.35;3.05;;;;;;;;;;6121959;23;20044;-83
2023/12/09 01:09:42;;;;;;;2.72;2.50;;;;;;;;;;6123552;23;20022;-83
2023/12/09 01:12:09;;;;;;;6.38;2.88;;;;;;;;;;6122660;23;20033;-83
2023/12/09 01:14:37;;;;;;;4.47;3.13;;;;;;;;;;6121951;23;20048;-83
2023/12/09 01:17:04;;;;;;;4.38;3.10;;;;;;;;;;6123298;23;20354;-83
2023/12/09 01:19:31;;;;;;;3.63;3.33;;;;;;;;;;6121952;23;20022;-83
2023/12/09 01:21:59;;;;;;;3.83;3.53;;;;;;;;;;6121767;23;20033;-83
2023/12/09 01:24:26;;;;;;;6.53;3.80;;;;;;;;;;6121594;23;20022;-84
2023/12/09 01:26:53;;;;;;;6.43;3.55;;;;;;;;;;6121683;23;20034;-83
2023/12/09 01:29:20;;;;;;;4.90;3.35;;;;;;;;;;6121492;23;20022;-83
2023/12/09 01:31:48;;;;;;;6.00;3.60;;;;;;;;;;6121800;23;20405;-83
2023/12/09 01:34:15;;;;;;;5.05;4.13;;;;;;;;;;6122971;23;20025;-83
2023/12/09 01:36:42;;;;;;;6.35;3.75;;;;;;;;;;6121309;23;20026;-83
2023/12/09 01:39:09;;;;;;;4.15;3.72;;;;;;;;;;6121656;23;20034;-83
2023/12/09 01:41:37;;;;;;;5.07;3.28;;;;;;;;;;6122799;23;20018;-83
2023/12/09 01:44:05;;;;;;;6.07;3.28;;;;;;;;;;6123093;23;20462;-83
2023/12/09 01:46:33;;;;;;;6.22;3.53;;;;;;;;;;6121278;23;20014;-83
2023/12/09 01:49:00;;;;;;;7.65;3.25;;;;;;;;;;6121861;23;20076;-84
2023/12/09 01:51:28;;;;;;;4.43;2.83;;;;;;;;;;6123381;23;20022;-83
2023/12/09 01:53:55;;;;;;;4.13;3.05;;;;;;;;;;6121663;23;20028;-84
2023/12/09 01:56:23;;;;;;;4.40;2.65;;;;;;;;;;6121196;23;20197;-84
2023/12/09 01:58:50;;;;;;;4.53;2.58;;;;;;;;;;6121304;23;20056;-83
2023/12/09 02:01:17;;;;;;;3.40;2.63;;;;;;;;;;6123142;23;20022;-83
2023/12/09 02:03:45;;;;;;;2.75;2.45;;;;;;;;;;6121376;23;20053;-83
2023/12/09 02:06:12;;;;;;;3.13;2.70;;;;;;;;;;6121161;23;20503;-83
2023/12/09 02:08:40;;;;;;;3.67;2.42;;;;;;;;;;6121685;23;20080;-83
2023/12/09 02:11:07;;;;;;;4.20;3.17;;;;;;;;;;6121704;23;20405;-81
2023/12/09 02:13:42;;;;;;;10.45;3.35;;;;;;;;;;6121495;23;20096;-82
2023/12/09 02:16:18;;;;;;;8.90;3.45;;;;;;;;;;6121694;23;20084;-81
2023/12/09 02:18:45;;;;;;;4.95;2.78;;;;;;;;;;6122616;23;20025;-82
2023/12/09 02:21:12;;;;;;;4.93;2.70;;;;;;;;;;6122512;23;20022;-82
2023/12/09 02:23:40;;;;;;;4.47;2.42;;;;;;;;;;6121425;23;20022;-82
2023/12/09 02:26:12;;;;;;;3.22;2.22;;;;;;;;;;6122650;23;20455;-82
2023/12/09 02:28:41;;;;;;;2.28;2.15;;;;;;;;;;6121576;23;20233;-82
2023/12/09 02:31:19;;;;;;;4.45;2.30;;;;;;;;;;6121111;23;20029;-82
2023/12/09 02:33:47;;;;;;;3.38;2.25;;;;;;;;;;6121355;23;20026;-82
2023/12/09 02:36:17;;;;;;;3.25;2.78;;;;;;;;;;6122343;23;20049;-82
2023/12/09 02:38:45;;;;;;;2.25;2.10;;;;;;;;;;6122842;23;20029;-81
2023/12/09 02:41:12;;;;;;;5.28;2.63;;;;;;;;;;6121545;23;20087;-83
2023/12/09 02:43:41;;;;;;;2.67;2.47;;;;;;;;;;6122809;23;20025;-82
2023/12/09 02:46:13;;;;;;;3.97;2.67;;;;;;;;;;6120742;23;20022;-82
2023/12/09 02:48:40;;;;;;;3.65;2.70;;;;;;;;;;6120001;23;20025;-83
2023/12/09 02:51:08;;;;;;;3.50;2.45;;;;;;;;;;6120091;23;20026;-83
2023/12/09 02:53:35;;;;;;;4.07;2.38;;;;;;;;;;6125009;23;20026;-82
2023/12/09 02:56:02;;;;;;;2.50;2.22;;;;;;;;;;6149013;23;20011;-81
2023/12/09 02:58:30;;;;;;;3.92;2.30;;;;;;;;;;6139162;23;20030;-82
2023/12/09 03:00:57;;;;;;;2.17;2.00;;;;;;;;;;6136689;23;20048;-83
2023/12/09 03:03:25;;;;;;;2.65;2.10;;;;;;;;;;6131474;23;20022;-83
2023/12/09 03:05:52;;;;;;;2.80;2.28;;;;;;;;;;6131698;22;20052;-82
2023/12/09 03:08:20;;;;;;;2.90;2.15;;;;;;;;;;6128303;23;20355;-83
2023/12/09 03:10:47;;;;;;;2.05;1.88;;;;;;;;;;6122848;23;20045;-83
2023/12/09 03:13:14;;;;;;;2.80;2.40;;;;;;;;;;6122329;23;20053;-82
2023/12/09 03:15:41;;;;;;;2.63;2.40;;;;;;;;;;6122794;23;20018;-84
2023/12/09 03:18:09;;;;;;;3.85;2.20;;;;;;;;;;6122512;23;20046;-83
2023/12/09 03:20:36;;;;;;;1.85;1.73;;;;;;;;;;6122821;23;20101;-82
2023/12/09 03:23:03;;;;;;;2.53;2.33;;;;;;;;;;6122939;23;20030;-83
2023/12/09 03:25:32;;;;;;;2.20;2.00;;;;;;;;;;6121977;23;20032;-84
2023/12/09 03:27:59;;;;;;;4.03;2.30;;;;;;;;;;6122140;23;20112;-83
2023/12/09 03:30:27;;;;;;;2.17;2.08;;;;;;;;;;6121768;23;20056;-82
2023/12/09 03:32:55;;;;;;;3.05;2.20;;;;;;;;;;6121910;23;20022;-82
2023/12/09 03:35:22;;;;;;;4.47;2.00;;;;;;;;;;6122466;23;20028;-83
2023/12/09 03:37:49;;;;;;;2.58;2.38;;;;;;;;;;6122320;23;20076;-82
2023/12/09 03:40:16;;;;;;;2.63;2.33;;;;;;;;;;6122310;23;20025;-82
2023/12/09 03:42:43;;;;;;;2.63;2.40;;;;;;;;;;6122225;23;20023;-83
2023/12/09 03:45:11;;;;;;;3.53;2.75;;;;;;;;;;6121545;23;20036;-83
2023/12/09 03:47:38;;;;;;;2.58;2.13;;;;;;;;;;6122246;23;20076;-82
2023/12/09 03:50:06;;;;;;;2.70;2.50;;;;;;;;;;6122063;23;20056;-81
2023/12/09 03:52:33;;;;;;;2.80;2.60;;;;;;;;;;6121937;23;20087;-82
2023/12/09 03:55:00;;;;;;;3.58;3.28;;;;;;;;;;6123627;23;20413;-82
2023/12/09 03:57:27;;;;;;;3.75;3.30;;;;;;;;;;6121803;23;20079;-82
2023/12/09 03:59:55;;;;;;;3.35;2.92;;;;;;;;;;6121950;23;20026;-82
2023/12/09 04:02:22;;;;;;;4.68;3.40;;;;;;;;;;6123715;23;20022;-81
2023/12/09 04:04:50;;;;;;;6.40;3.83;;;;;;;;;;6123786;22;20072;-82
2023/12/09 04:07:17;;;;;;;7.40;3.90;;;;;;;;;;6122231;23;20018;-82
2023/12/09 04:09:48;;;;;;;6.13;3.47;;;;;;;;;;6122243;23;20022;-82
2023/12/09 04:12:15;;;;;;;4.47;3.10;;;;;;;;;;6121362;23;20549;-81
2023/12/09 04:14:42;;;;;;;5.28;3.65;;;;;;;;;;6122274;23;20022;-81
2023/12/09 04:17:10;;;;;;;3.33;3.05;;;;;;;;;;6122053;23;20231;-82
2023/12/09 04:19:37;;;;;;;6.22;3.50;;;;;;;;;;6121913;23;20026;-82
2023/12/09 04:22:05;;;;;;;3.70;3.35;;;;;;;;;;6121980;23;20394;-82
2023/12/09 04:24:32;;;;;;;5.22;3.75;;;;;;;;;;6123074;23;20462;-82
2023/12/09 04:26:59;;;;;;;4.68;3.10;;;;;;;;;;6123435;23;20029;-82
2023/12/09 04:29:26;;;;;;;6.60;2.45;;;;;;;;;;6122053;23;20032;-82
2023/12/09 04:31:54;;;;;;;3.25;2.97;;;;;;;;;;6122114;23;20355;-82
2023/12/09 04:34:22;;;;;;;4.35;2.80;;;;;;;;;;6123465;23;20079;-82
2023/12/09 04:36:50;;;;;;;2.53;2.15;;;;;;;;;;6123389;23;20045;-82
2023/12/09 04:39:17;;;;;;;2.75;2.25;;;;;;;;;;6121697;23;20022;-82
2023/12/09 04:41:47;;;;;;;5.10;2.78;;;;;;;;;;6123338;23;20044;-81
2023/12/09 04:44:14;;;;;;;4.15;2.55;;;;;;;;;;6121994;23;20026;-82
2023/12/09 04:46:41;;;;;;;4.50;3.15;;;;;;;;;;6123050;23;20022;-82
2023/12/09 04:49:08;;;;;;;3.72;3.38;;;;;;;;;;6122891;23;20018;-82
2023/12/09 04:51:36;;;;;;;6.53;4.63;;;;;;;;;;6121680;23;20022;-82
2023/12/09 04:54:03;;;;;;;6.93;4.60;;;;;;;;;;6121647;23;20026;-82
2023/12/09 04:56:30;;;;;;;6.85;4.25;;;;;;;;;;6121437;23;20490;-82
2023/12/09 04:58:58;;;;;;;6.85;4.70;;;;;;;;;;6121927;23;20052;-82
2023/12/09 05:01:25;;;;;;;5.95;4.85;;;;;;;;;;6121748;23;20026;-82
2023/12/09 05:03:53;;;;;;;6.70;4.80;;;;;;;;;;6123336;22;20025;-82
2023/12/09 05:06:20;;;;;;;8.57;4.20;;;;;;;;;;6122869;23;20029;-81
2023/12/09 05:08:47;;;;;;;6.20;4.25;;;;;;;;;;6122046;23;20101;-81
2023/12/09 05:11:14;;;;;;;5.68;4.40;;;;;;;;;;6121560;23;20029;-82
2023/12/09 05:13:41;;;;;;;4.20;3.85;;;;;;;;;;6123456;23;20397;-82
2023/12/09 05:16:09;;;;;;;7.43;4.50;;;;;;;;;;6121544;23;20026;-81
2023/12/09 05:18:36;;;;;;;3.72;3.40;;;;;;;;;;6121494;23;20022;-82
2023/12/09 05:21:06;;;;;;;3.55;3.33;;;;;;;;;;6121694;23;20029;-82
2023/12/09 05:23:34;;;;;;;4.00;3.40;;;;;;;;;;6121501;23;20028;-82
2023/12/09 05:26:02;;;;;;;7.10;3.70;;;;;;;;;;6121265;23;20101;-82
2023/12/09 05:28:30;;;;;;;5.38;3.35;;;;;;;;;;6122170;23;20056;-82
2023/12/09 05:30:57;;;;;;;4.28;3.33;;;;;;;;;;6121370;23;20462;-82
2023/12/09 05:33:25;;;;;;;4.30;3.90;;;;;;;;;;6121233;23;20030;-82
2023/12/09 05:35:52;;;;;;;5.25;3.70;;;;;;;;;;6121831;23;20044;-82
2023/12/09 05:38:20;;;;;;;3.75;3.38;;;;;;;;;;6122825;23;20032;-82
2023/12/09 05:40:47;;;;;;;4.10;3.72;;;;;;;;;;6123040;23;20026;-83
2023/12/09 05:43:14;;;;;;;4.53;4.13;;;;;;;;;;6123096;23;20018;-82
2023/12/09 05:45:42;;;;;;;6.50;4.10;;;;;;;;;;6122051;23;20080;-83
2023/12/09 05:48:09;;;;;;;5.70;3.70;;;;;;;;;;6121803;23;20025;-83
2023/12/09 05:50:37;;;;;;;7.28;4.32;;;;;;;;;;6122535;23;20097;-82
2023/12/09 05:53:04;;;;;;;4.30;3.22;;;;;;;;;;6121962;23;20584;-82
2023/12/09 05:55:32;;;;;;;5.45;4.10;;;;;;;;;;6123013;23;20026;-83
2023/12/09 05:57:59;;;;;;;3.70;3.40;;;;;;;;;;6122105;23;20411;-82
2023/12/09 06:00:26;;;;;;;6.45;3.65;;;;;;;;;;6121728;23;20022;-83
2023/12/09 06:02:53;;;;;;;6.20;3.58;;;;;;;;;;6123285;23;20075;-82
2023/12/09 06:05:21;;;;;;;4.38;3.83;;;;;;;;;;6122858;22;20054;-82
2023/12/09 06:07:48;;;;;;;4.65;3.47;;;;;;;;;;6121802;23;20041;-83
2023/12/09 06:10:15;;;;;;;4.53;4.07;;;;;;;;;;6123315;23;20359;-83
2023/12/09 06:12:42;;;;;;;5.57;3.90;;;;;;;;;;6121858;23;20029;-83
2023/12/09 06:15:10;;;;;;;4.95;3.65;;;;;;;;;;6123127;23;20101;-82
2023/12/09 06:17:37;;;;;;;3.30;3.03;;;;;;;;;;6123188;23;20050;-83
2023/12/09 06:20:08;;;;;;;3.92;3.17;;;;;;;;;;6122047;23;20035;-82
2023/12/09 06:22:35;;;;;;;3.38;3.10;;;;;;;;;;6122165;23;20079;-83
2023/12/09 06:25:02;;;;;;;3.63;3.33;;;;;;;;;;6121792;23;20421;-82
2023/12/09 06:27:31;;;;;;;3.72;3.42;;;;;;;;;;6121862;23;20022;-82
2023/12/09 06:29:58;;;;;;;4.50;4.10;;;;;;;;;;6121582;23;20097;-83
2023/12/09 06:32:25;;;;;;;3.25;3.00;;;;;;;;;;6122388;23;20030;-82
2023/12/09 06:34:53;;;;;;;3.03;2.80;;;;;;;;;;6122290;23;20057;-82
2023/12/09 06:37:20;;;;;;;6.65;3.70;;;;;;;;;;6122438;23;20021;-83
2023/12/09 06:39:47;;;;;;;3.90;2.88;;;;;;;;;;6123644;23;20022;-82
2023/12/09 06:42:15;;;;;;;5.82;5.20;;;;;;;;;;6122444;23;20068;-82
2023/12/09 06:44:42;;;;;;;6.20;3.95;;;;;;;;;;6122446;23;20022;-82
2023/12/09 06:47:10;;;;;;;9.40;8.48;;;;;;;;;;6122732;23;20081;-82
2023/12/09 06:49:37;;;;;;;4.40;4.10;;;;;;;;;;6124058;23;20022;-82
2023/12/09 06:52:04;;;;;;;4.28;3.78;;;;;;;;;;6122061;23;20049;-82
2023/12/09 06:54:31;;;;;;;4.20;3.80;;;;;;;;;;6122252;23;20084;-82
2023/12/09 06:56:59;;;;;;;4.93;4.50;;;;;;;;;;6122175;23;20065;-83
2023/12/09 06:59:26;;;;;;;5.03;4.53;;;;;;;;;;6123665;23;20032;-82
2023/12/09 07:01:59;;;;;;;5.18;4.28;;;;;;;;;;6122200;23;20026;-83
2023/12/09 07:04:27;;;;;;;5.90;3.90;;;;;;;;;;6121698;23;20022;-83
2023/12/09 07:06:59;;;;;;;4.78;4.30;;;;;;;;;;6123321;23;20022;-83
2023/12/09 07:09:28;;;;;;;6.60;4.30;;;;;;;;;;6121495;23;20459;-83
2023/12/09 07:11:55;;;;;;;5.38;4.07;;;;;;;;;;6121484;23;20471;-83
2023/12/09 07:14:28;;;;;;;4.45;3.97;;;;;;;;;;6122019;23;20462;-83
2023/12/09 07:16:56;;;;;;;4.68;3.70;;;;;;;;;;6121934;23;20022;-83
2023/12/09 07:19:23;;;;;;;16.10;7.43;;;;;;;;;;6123520;23;20018;-83
2023/12/09 07:21:51;;;;;;;4.15;3.72;;;;;;;;;;6121805;23;20071;-83
2023/12/09 07:24:18;;;;;;;5.00;4.03;;;;;;;;;;6121498;23;20018;-83
2023/12/09 07:26:45;;;;;;;4.03;3.65;;;;;;;;;;6123352;23;20018;-84
2023/12/09 07:29:13;;;;;;;5.28;4.03;;;;;;;;;;6121846;23;20022;-84
2023/12/09 07:31:40;;;;;;;11.75;4.90;;;;;;;;;;6121859;23;20022;-84
2023/12/09 07:34:09;;;;;;;6.65;5.10;;;;;;;;;;6123394;23;20033;-84
2023/12/09 07:36:36;;;;;;;6.75;6.05;;;;;;;;;;6123108;23;20029;-83
2023/12/09 07:39:04;;;;;;;6.30;5.70;;;;;;;;;;6122870;23;20050;-83
2023/12/09 07:41:32;;;;;;;7.07;5.80;;;;;;;;;;6121947;23;20033;-83
2023/12/09 07:43:59;;;;;;;19.42;14.93;;;;;;;;;;6121640;23;20018;-83
2023/12/09 07:46:26;;;;;;;22.45;17.38;;;;;;;;;;6122282;23;20018;-83
2023/12/09 07:48:54;;;;;;;16.08;13.15;;;;;;;;;;6123846;23;20520;-84
2023/12/09 07:51:21;;;;;;;9.60;7.90;;;;;;;;;;6124341;23;20022;-83
2023/12/09 07:53:48;;;;;;;9.50;7.43;;;;;;;;;;6123652;23;20022;-84
2023/12/09 07:56:16;;;;;;;8.27;6.82;;;;;;;;;;6123976;23;20075;-83
2023/12/09 07:58:45;;;;;;;9.65;6.90;;;;;;;;;;6123665;23;20359;-83
2023/12/09 08:01:13;;;;;;;6.80;6.10;;;;;;;;;;6124696;23;20026;-83
2023/12/09 08:03:40;;;;;;;5.57;5.05;;;;;;;;;;6126205;23;20019;-83
2023/12/09 08:06:08;;;;;;;6.70;6.10;;;;;;;;;;6123896;23;20029;-83
2023/12/09 08:08:35;;;;;;;3.28;2.97;;;;;;;;;;6123539;23;20018;-83
2023/12/09 08:11:03;;;;;;;4.40;3.88;;;;;;;;;;6123625;23;20101;-83
2023/12/09 08:13:30;;;;;;;4.50;4.03;;;;;;;;;;6123870;23;20026;-85
2023/12/09 08:15:57;;;;;;;4.68;3.20;;;;;;;;;;6122994;23;20475;-83
2023/12/09 08:18:25;;;;;;;4.22;3.10;;;;;;;;;;6124408;23;20030;-83
2023/12/09 08:20:54;;;;;;;2.85;2.65;;;;;;;;;;6124788;23;20026;-83
2023/12/09 08:23:21;;;;;;;2.78;2.67;;;;;;;;;;6122810;23;20072;-83
2023/12/09 08:25:49;;;;;;;4.13;3.53;;;;;;;;;;6124434;23;20087;-83
2023/12/09 08:28:16;;;;;;;3.42;2.63;;;;;;;;;;6123424;23;20080;-83
2023/12/09 08:30:46;;;;;;;2.90;2.60;;;;;;;;;;6123452;23;20029;-83
2023/12/09 08:33:14;;;;;;;2.28;2.17;;;;;;;;;;6124779;23;20072;-83
2023/12/09 08:35:41;;;;;;;57.78;30.95;;;;;;;;;;6123136;23;20348;-83
2023/12/09 08:38:09;;;;;;;7.95;5.65;;;;;;;;;;6123521;23;20025;-83
2023/12/09 08:40:36;;;;;;;36.00;19.60;;;;;;;;;;6123006;23;20072;-83
2023/12/09 08:43:03;;;;;;;7.50;5.50;;;;;;;;;;6122542;23;20354;-83
2023/12/09 08:45:31;;;;;;;3.75;3.45;;;;;;;;;;6123066;23;20443;-83
2023/12/09 08:47:59;;;;;;;6.43;4.75;;;;;;;;;;6123130;23;20093;-83
2023/12/09 08:50:27;;;;;;;4.85;4.30;;;;;;;;;;6122931;23;20463;-83
2023/12/09 08:52:54;;;;;;;10.02;9.02;;;;;;;;;;6123211;23;20175;-83
2023/12/09 08:55:22;;;;;;;6.70;6.10;;;;;;;;;;6123703;23;20072;-83
2023/12/09 08:57:51;;;;;;;8.43;7.53;;;;;;;;;;6122684;23;20022;-83
2023/12/09 09:00:20;;;;;;;5.38;4.65;;;;;;;;;;6123092;23;20022;-83
2023/12/09 09:02:48;;;;;;;3.88;3.58;;;;;;;;;;6122673;23;20018;-84
2023/12/09 09:05:16;;;;;;;5.22;4.35;;;;;;;;;;6122805;23;20489;-83
2023/12/09 09:07:49;;;;;;;1.85;1.83;;;;;;;;;;6124221;23;20538;-83
2023/12/09 09:10:16;;;;;;;3.58;2.22;;;;;;;;;;6122668;23;20018;-83
2023/12/09 09:12:43;;;;;;;2.30;2.20;;;;;;;;;;6122949;23;20022;-84
2023/12/09 09:15:12;;;;;;;2.65;2.45;;;;;;;;;;6122877;23;20022;-83
2023/12/09 09:17:39;;;;;;;3.95;2.03;;;;;;;;;;6124089;23;20030;-83
2023/12/09 09:20:07;;;;;;;2.85;2.17;;;;;;;;;;6123036;23;20060;-83
2023/12/09 09:22:35;;;;;;;2.60;1.95;;;;;;;;;;6122728;23;20029;-83
2023/12/09 09:25:03;;;;;;;1.58;1.40;;;;;;;;;;6124170;23;20056;-84
2023/12/09 09:27:30;;;;;;;1.05;1.05;;;;;;;;;;6123705;23;20467;-84
2023/12/09 09:29:58;;;;;;;1.10;1.10;;;;;;;;;;6122857;23;20045;-84
2023/12/09 09:32:25;;;;;;;1.65;1.55;;;;;;;;;;6142331;23;20022;-84
2023/12/09 09:34:53;;;;;;;1.17;1.17;;;;;;;;;;6135681;23;20022;-83
2023/12/09 09:37:20;;;;;;;1.10;0.98;;;;;;;;;;6131841;23;20018;-85
2023/12/09 09:39:48;;;;;;;1.02;1.02;;;;;;;;;;6140224;23;20018;-85
2023/12/09 09:42:19;;;;;;;1.05;1.05;;;;;;;;;;6136600;23;20029;-84
2023/12/09 09:45:15;;;;;;;1.77;1.00;;;;;;;;;;6124027;23;20038;-84
2023/12/09 09:47:42;;;;;;;1.40;1.30;;;;;;;;;;6105991;23;20105;-84
2023/12/09 09:50:10;;;;;;;1.10;1.10;;;;;;;;;;6122234;23;20074;-84
2023/12/09 09:52:40;;;;;;;1.92;1.27;;;;;;;;;;6123017;23;20080;-84
2023/12/09 09:55:08;;;;;;;2.25;1.20;;;;;;;;;;6122563;23;20097;-84
2023/12/09 09:57:35;;;;;;;1.35;1.30;;;;;;;;;;6122922;23;20018;-84
2023/12/09 10:00:12;;;;;;;1.27;1.27;;;;;;;;;;6123142;23;20033;-84
2023/12/09 10:02:47;;;;;;;5.55;1.45;;;;;;;;;;6123342;23;20022;-84
2023/12/09 10:05:20;;;;;;;1.90;1.50;;;;;;;;;;6126069;22;20018;-84
2023/12/09 10:07:47;;;;;;;1.30;1.30;;;;;;;;;;6123767;23;20018;-85
2023/12/09 10:10:16;;;;;;;1.60;1.50;;;;;;;;;;6123643;23;20113;-85
2023/12/09 10:12:44;;;;;;;1.98;1.40;;;;;;;;;;6127295;23;20022;-85
2023/12/09 10:15:12;;;;;;;1.33;1.33;;;;;;;;;;6126612;23;20028;-86
2023/12/09 10:17:39;;;;;;;1.17;1.13;;;;;;;;;;6126492;23;20484;-85
2023/12/09 10:20:09;;;;;;;1.67;1.20;;;;;;;;;;6127509;23;20060;-84
2023/12/09 10:22:37;;;;;;;1.23;1.23;;;;;;;;;;6126018;23;20280;-84
2023/12/09 10:25:04;;;;;;;2.88;1.80;;;;;;;;;;6125890;23;20021;-84
2023/12/09 10:27:33;;;;;;;1.40;1.30;;;;;;;;;;6127449;23;20041;-83
2023/12/09 10:30:01;;;;;;;2.65;1.35;;;;;;;;;;6127219;23;20018;-85
2023/12/09 10:32:28;;;;;;;1.58;1.40;;;;;;;;;;6126510;23;20030;-84
2023/12/09 10:34:56;;;;;;;1.70;1.60;;;;;;;;;;6126991;23;20022;-83
2023/12/09 10:37:27;;;;;;;1.60;1.50;;;;;;;;;;6126200;23;20054;-84
2023/12/09 10:39:54;;;;;;;1.98;1.48;;;;;;;;;;6125872;23;20477;-84
2023/12/09 10:42:23;;;;;;;4.82;2.13;;;;;;;;;;6125475;23;20018;-86
2023/12/09 10:44:51;;;;;;;2.53;1.60;;;;;;;;;;6126450;23;20355;-83
2023/12/09 10:47:19;;;;;;;1.88;1.77;;;;;;;;;;6125958;23;20037;-86
2023/12/09 10:49:46;;;;;;;2.70;1.90;;;;;;;;;;6125511;23;20022;-84
2023/12/09 10:52:14;;;;;;;2.50;1.63;;;;;;;;;;6127084;23;20018;-85
2023/12/09 10:54:41;;;;;;;3.60;1.95;;;;;;;;;;6125821;23;20474;-84
2023/12/09 10:57:09;;;;;;;4.65;1.80;;;;;;;;;;6129908;23;20024;-85
2023/12/09 10:59:36;;;;;;;2.55;2.08;;;;;;;;;;6132068;23;20358;-86
2023/12/09 11:02:05;;;;;;;3.13;1.85;;;;;;;;;;6125853;23;20528;-85
2023/12/09 11:04:33;;;;;;;2.67;1.90;;;;;;;;;;6125136;23;20036;-86
2023/12/09 11:07:06;;;;;;;3.58;1.80;;;;;;;;;;6124334;23;20042;-83
2023/12/09 11:09:34;;;;;;;4.70;1.88;;;;;;;;;;6123560;23;20022;-84
2023/12/09 11:12:01;;;;;;;3.05;2.05;;;;;;;;;;6122359;23;20092;-84
2023/12/09 11:14:28;;;;;;;2.10;1.90;;;;;;;;;;6122560;23;20022;-84
2023/12/09 11:17:00;;;;;;;2.25;2.05;;;;;;;;;;6121919;23;20045;-84
2023/12/09 11:19:27;;;;;;;3.97;2.40;;;;;;;;;;6121776;23;20026;-84
2023/12/09 11:21:55;;;;;;;5.68;2.33;;;;;;;;;;6123591;23;20100;-84
2023/12/09 11:24:28;;;;;;;2.42;2.22;;;;;;;;;;6124489;23;20021;-83
2023/12/09 11:26:55;;;;;;;3.63;2.00;;;;;;;;;;6123538;23;20018;-83
2023/12/09 11:29:25;;;;;;;6.70;2.30;;;;;;;;;;6125192;23;20022;-83
2023/12/09 11:31:53;;;;;;;2.20;2.00;;;;;;;;;;6125453;23;20072;-83
2023/12/09 11:34:22;;;;;;;4.20;2.30;;;;;;;;;;6124796;23;20025;-82
2023/12/09 11:36:52;;;;;;;3.67;2.17;;;;;;;;;;6124982;23;20044;-83
2023/12/09 11:39:20;;;;;;;5.50;2.20;;;;;;;;;;6124550;23;20022;-83
2023/12/09 11:41:49;;;;;;;2.30;2.10;;;;;;;;;;6123545;23;20060;-82
2023/12/09 11:44:16;;;;;;;2.38;1.85;;;;;;;;;;6123195;23;20026;-83
2023/12/09 11:46:45;;;;;;;4.18;2.40;;;;;;;;;;6122765;23;20022;-84
2023/12/09 11:49:13;;;;;;;2.95;2.15;;;;;;;;;;6124185;23;20071;-84
2023/12/09 11:51:40;;;;;;;1.95;1.85;;;;;;;;;;6123198;23;20030;-83
2023/12/09 11:54:09;;;;;;;3.60;1.92;;;;;;;;;;6122932;23;20022;-82
2023/12/09 11:56:38;;;;;;;2.45;1.80;;;;;;;;;;6124456;23;20100;-83
2023/12/09 11:59:06;;;;;;;2.53;1.70;;;;;;;;;;6123338;23;20025;-83
2023/12/09 12:01:35;;;;;;;1.77;1.67;;;;;;;;;;6122694;23;20025;-83
2023/12/09 12:04:03;;;;;;;1.40;1.30;;;;;;;;;;6123722;23;20018;-83
2023/12/09 12:06:31;;;;;;;1.55;1.45;;;;;;;;;;6122702;23;20097;-83
2023/12/09 12:08:58;;;;;;;1.20;1.20;;;;;;;;;;6124421;23;20056;-83
2023/12/09 12:11:26;;;;;;;1.48;1.38;;;;;;;;;;6124856;23;20386;-85
2023/12/09 12:13:53;;;;;;;1.23;1.23;;;;;;;;;;6126952;23;20338;-83
2023/12/09 12:16:21;;;;;;;4.38;1.40;;;;;;;;;;6126286;23;20026;-83
2023/12/09 12:18:48;;;;;;;1.60;1.40;;;;;;;;;;6126317;23;20026;-82
2023/12/09 12:21:16;;;;;;;2.53;2.20;;;;;;;;;;6125613;23;20041;-85
2023/12/09 12:23:44;;;;;;;1.38;1.30;;;;;;;;;;6126941;23;20022;-83
2023/12/09 12:26:13;;;;;;;1.90;1.63;;;;;;;;;;6126001;23;20022;-84
2023/12/09 12:28:40;;;;;;;1.92;1.10;;;;;;;;;;6126652;23;20462;-84
2023/12/09 12:31:10;;;;;;;1.20;1.10;;;;;;;;;;6127774;23;20026;-82
2023/12/09 12:33:39;;;;;;;1.38;1.30;;;;;;;;;;6126647;23;20060;-83
2023/12/09 12:36:08;;;;;;;4.18;1.50;;;;;;;;;;6126504;23;20037;-83
2023/12/09 12:38:35;;;;;;;2.67;1.50;;;;;;;;;;6126860;23;20054;-84
2023/12/09 12:41:02;;;;;;;1.63;1.52;;;;;;;;;;6127643;23;20524;-84
2023/12/09 12:43:31;;;;;;;2.30;2.17;;;;;;;;;;6125475;23;20022;-85
2023/12/09 12:45:59;;;;;;;1.75;1.65;;;;;;;;;;6126306;23;20075;-84
2023/12/09 12:48:27;;;;;;;2.50;2.33;;;;;;;;;;6124630;23;20479;-83
2023/12/09 12:50:55;;;;;;;1.90;1.80;;;;;;;;;;6124999;23;20024;-84
2023/12/09 12:53:27;;;;;;;2.40;2.20;;;;;;;;;;6126413;23;20463;-83
2023/12/09 12:55:55;;;;;;;2.08;1.92;;;;;;;;;;6126170;23;20017;-84
2023/12/09 12:58:23;;;;;;;4.45;2.80;;;;;;;;;;6127501;23;20026;-84
2023/12/09 13:00:52;;;;;;;5.03;2.42;;;;;;;;;;6122505;23;20517;-85
2023/12/09 13:03:20;;;;;;;2.28;2.13;;;;;;;;;;6122804;23;20018;-83
2023/12/09 13:05:47;;;;;;;2.17;2.08;;;;;;;;;;6122227;23;20028;-87
2023/12/09 13:08:15;;;;;;;2.95;2.05;;;;;;;;;;6122668;23;20022;-84
2023/12/09 13:10:43;;;;;;;1.90;1.73;;;;;;;;;;6123168;23;20026;-84
2023/12/09 13:13:10;;;;;;;2.35;2.17;;;;;;;;;;6123182;23;20104;-83
2023/12/09 13:15:37;;;;;;;3.38;2.20;;;;;;;;;;6123108;23;20026;-83
2023/12/09 13:18:05;;;;;;;5.60;2.47;;;;;;;;;;6122939;23;20037;-83
2023/12/09 13:20:33;;;;;;;2.10;2.00;;;;;;;;;;6122985;23;20076;-83
2023/12/09 13:23:01;;;;;;;4.15;2.40;;;;;;;;;;6122797;23;20367;-84
2023/12/09 13:25:30;;;;;;;2.92;2.72;;;;;;;;;;6122476;23;20413;-83
2023/12/09 13:27:58;;;;;;;2.90;2.60;;;;;;;;;;6123011;23;20022;-84
2023/12/09 13:30:26;;;;;;;3.17;2.90;;;;;;;;;;6124077;23;20401;-84
2023/12/09 13:33:00;;;;;;;2.90;2.70;;;;;;;;;;6123260;23;20029;-86
2023/12/09 13:35:28;;;;;;;4.60;3.30;;;;;;;;;;6123824;23;20529;-84
2023/12/09 13:37:55;;;;;;;3.60;3.25;;;;;;;;;;6122481;23;20075;-84
2023/12/09 13:40:23;;;;;;;7.05;4.90;;;;;;;;;;6122831;23;20068;-86
2023/12/09 13:42:51;;;;;;;4.03;3.67;;;;;;;;;;6122436;23;20033;-85
2023/12/09 13:45:18;;;;;;;5.03;4.30;;;;;;;;;;6122372;23;20092;-84
2023/12/09 13:47:46;;;;;;;5.10;4.30;;;;;;;;;;6122703;23;20022;-83
2023/12/09 13:50:13;;;;;;;6.10;4.43;;;;;;;;;;6122230;23;20022;-84
2023/12/09 13:52:41;;;;;;;5.72;4.53;;;;;;;;;;6123975;23;20072;-83
2023/12/09 13:55:09;;;;;;;5.85;3.95;;;;;;;;;;6122633;23;20030;-84
2023/12/09 13:57:36;;;;;;;4.70;4.25;;;;;;;;;;6122231;23;20030;-83
2023/12/09 14:00:07;;;;;;;6.72;4.78;;;;;;;;;;6122808;23;20091;-85
2023/12/09 14:02:35;;;;;;;6.05;4.63;;;;;;;;;;6122876;23;20030;-84
2023/12/09 14:05:09;;;;;;;7.00;5.00;;;;;;;;;;6122102;23;20018;-84
2023/12/09 14:07:37;;;;;;;6.25;4.45;;;;;;;;;;6122945;23;20096;-83
2023/12/09 14:10:05;;;;;;;5.47;4.40;;;;;;;;;;6122911;23;20447;-83
2023/12/09 14:12:33;;;;;;;9.13;4.68;;;;;;;;;;6122890;23;20026;-82
2023/12/09 14:15:01;;;;;;;6.80;3.95;;;;;;;;;;6122481;23;20030;-84
2023/12/09 14:17:29;;;;;;;6.40;4.45;;;;;;;;;;6122596;23;20080;-84
2023/12/09 14:19:56;;;;;;;5.55;4.38;;;;;;;;;;6123399;23;20029;-84
2023/12/09 14:22:24;;;;;;;5.57;3.90;;;;;;;;;;6122882;23;20025;-84
2023/12/09 14:24:52;;;;;;;5.65;4.32;;;;;;;;;;6122433;23;20022;-84
2023/12/09 14:27:19;;;;;;;4.88;4.30;;;;;;;;;;6121678;23;20481;-83
2023/12/09 14:29:46;;;;;;;5.72;5.20;;;;;;;;;;6124120;23;20018;-84
2023/12/09 14:32:13;;;;;;;7.43;4.50;;;;;;;;;;6122824;23;20083;-85
2023/12/09 14:34:41;;;;;;;5.35;4.45;;;;;;;;;;6123907;23;20030;-84
2023/12/09 14:37:08;;;;;;;5.05;4.45;;;;;;;;;;6122312;23;20022;-84
2023/12/09 14:39:35;;;;;;;5.93;4.45;;;;;;;;;;6122300;23;20037;-84
2023/12/09 14:42:03;;;;;;;6.25;4.43;;;;;;;;;;6123347;23;20534;-84
2023/12/09 14:44:30;;;;;;;5.80;4.30;;;;;;;;;;6122281;23;20064;-85
2023/12/09 14:46:57;;;;;;;9.27;4.80;;;;;;;;;;6123329;23;20022;-85